Time;durP1;ratioP1;P1;durP2;ratioP2;P2;SDS_P1;SDS_P2;PMS_P1;PMS_P2;Temp;Humidity;BMP_temperature;BMP_pressure;BME280_temperature;BME280_humidity;BME280_pressure;Samples;Min_cycle;Max_cycle;Signal;HPM_P1;HPM_P2
2023/03/12 00:00:57;;;;;;;5.70;3.93;;;;;;;1.28;66.00;99637.53;1465994;88;21700;-86
2023/03/12 00:03:24;;;;;;;8.77;3.03;;;;;;;1.32;66.73;99644.18;1479568;88;21627;-84
2023/03/12 00:05:50;;;;;;;4.63;2.83;;;;;;;1.27;66.36;99638.00;1473955;88;22099;-86
2023/03/12 00:08:16;;;;;;;2.70;2.10;;;;;;;1.31;67.12;99651.17;1483243;88;22255;-86
2023/03/12 00:10:42;;;;;;;5.13;2.57;;;;;;;1.25;66.11;99645.09;1485521;88;21478;-83
2023/03/12 00:13:09;;;;;;;4.93;2.97;;;;;;;1.26;66.05;99654.56;1495801;86;21663;-85
2023/03/12 00:15:37;;;;;;;4.10;2.70;;;;;;;1.25;65.71;99656.82;1474918;88;21609;-84
2023/03/12 00:18:04;;;;;;;3.63;2.30;;;;;;;1.23;66.46;99663.91;1480928;88;21668;-84
2023/03/12 00:20:31;;;;;;;6.90;2.90;;;;;;;1.22;65.96;99665.33;1476187;88;21590;-84
2023/03/12 00:22:57;;;;;;;5.63;2.90;;;;;;;1.19;65.38;99674.19;1477884;88;22462;-86
2023/03/12 00:25:24;;;;;;;7.20;3.27;;;;;;;1.20;66.20;99677.16;1471023;88;21748;-85
2023/03/12 00:27:50;;;;;;;6.43;2.93;;;;;;;1.22;65.85;99679.67;1476923;88;21694;-85
2023/03/12 00:30:16;;;;;;;6.47;3.47;;;;;;;1.19;64.99;99681.19;1475702;88;22635;-83
2023/03/12 00:32:42;;;;;;;5.20;2.40;;;;;;;1.17;66.09;99689.09;1478036;88;21886;-83
2023/03/12 00:35:09;;;;;;;5.07;2.60;;;;;;;1.16;65.34;99693.12;1475922;88;21613;-87
2023/03/12 00:37:37;;;;;;;5.77;3.93;;;;;;;1.19;66.05;99689.83;1468654;88;21638;-85
2023/03/12 00:40:07;;;;;;;4.67;3.07;;;;;;;1.10;66.22;99687.39;1469295;88;22342;-85
2023/03/12 00:42:33;;;;;;;3.93;2.67;;;;;;;1.15;66.42;99693.58;1473688;88;21709;-85
2023/03/12 00:44:59;;;;;;;5.47;2.83;;;;;;;1.06;65.27;99695.52;1468328;88;21597;-86
2023/03/12 00:47:26;;;;;;;4.40;1.90;;;;;;;1.07;65.77;99695.89;1479572;88;21721;-84
2023/03/12 00:49:52;;;;;;;6.63;2.87;;;;;;;1.04;64.93;99700.02;1480335;88;22164;-84
2023/03/12 00:52:18;;;;;;;9.33;4.07;;;;;;;1.00;64.87;99705.05;1477492;88;21773;-85
2023/03/12 00:54:44;;;;;;;3.53;2.37;;;;;;;0.97;63.99;99704.79;1503788;86;23289;-84
2023/03/12 00:57:12;;;;;;;4.30;2.90;;;;;;;1.02;65.23;99712.31;1486089;88;21656;-85
2023/03/12 00:59:39;;;;;;;6.03;2.97;;;;;;;0.98;64.92;99705.62;1481908;88;21611;-85
2023/03/12 01:02:07;;;;;;;4.67;2.73;;;;;;;1.01;65.28;99714.56;1477770;88;21620;-86
2023/03/12 01:04:33;;;;;;;5.47;2.63;;;;;;;0.96;64.94;99720.55;1489189;88;21456;-84
2023/03/12 01:06:59;;;;;;;4.73;2.57;;;;;;;0.92;64.64;99714.69;1480290;88;21767;-82
2023/03/12 01:09:26;;;;;;;3.73;1.97;;;;;;;0.94;65.67;99706.78;1474502;88;21678;-81
2023/03/12 01:11:52;;;;;;;5.53;2.40;;;;;;;0.80;64.92;99705.09;1481911;88;21562;-82
2023/03/12 01:14:18;;;;;;;4.83;2.40;;;;;;;0.74;64.09;99707.64;1466785;88;21648;-86
2023/03/12 01:16:44;;;;;;;5.50;2.57;;;;;;;0.78;64.79;99717.41;1478198;88;21568;-86
2023/03/12 01:19:11;;;;;;;5.13;2.97;;;;;;;0.79;65.75;99726.41;1468815;88;22714;-85
2023/03/12 01:21:37;;;;;;;5.57;2.37;;;;;;;0.76;65.29;99725.79;1472081;88;21684;-85
2023/03/12 01:24:04;;;;;;;5.53;2.53;;;;;;;0.76;65.21;99734.44;1476145;88;21765;-85
2023/03/12 01:26:30;;;;;;;3.83;1.70;;;;;;;0.74;65.03;99736.30;1470276;88;21685;-84
2023/03/12 01:28:56;;;;;;;4.87;2.40;;;;;;;0.68;64.36;99738.01;1471934;88;21569;-85
2023/03/12 01:31:22;;;;;;;4.00;2.57;;;;;;;0.65;64.63;99742.12;1469543;88;22449;-86
2023/03/12 01:33:50;;;;;;;3.93;2.27;;;;;;;0.61;64.73;99734.16;1474628;88;21603;-83
2023/03/12 01:36:25;;;;;;;4.23;2.00;;;;;;;0.57;65.06;99740.48;1479589;88;22558;-83
2023/03/12 01:38:56;;;;;;;8.63;3.40;;;;;;;0.52;65.08;99743.84;1470950;86;21606;-81
2023/03/12 01:41:24;;;;;;;4.05;2.60;;;;;;;0.50;65.62;99747.04;1470498;88;21743;-83
2023/03/12 01:43:51;;;;;;;3.93;2.27;;;;;;;0.42;65.58;99756.64;1476912;88;21428;-84
2023/03/12 01:46:35;;;;;;;5.23;2.53;;;;;;;0.38;65.04;99749.98;1472140;88;21776;-84
2023/03/12 01:49:18;;;;;;;5.43;3.17;;;;;;;0.34;65.08;99755.83;1481682;88;22476;-82
2023/03/12 01:51:53;;;;;;;8.27;2.83;;;;;;;0.37;65.76;99755.63;1477706;88;21556;-84
2023/03/12 01:54:24;;;;;;;3.87;2.27;;;;;;;0.34;66.13;99759.73;1477251;88;21561;-83
2023/03/12 01:56:51;;;;;;;7.75;2.67;;;;;;;0.30;66.13;99759.57;1482805;88;21530;-84
2023/03/12 01:59:32;;;;;;;5.80;2.70;;;;;;;0.26;65.04;99766.36;1475138;88;22307;-85
2023/03/12 02:01:58;;;;;;;4.83;2.42;;;;;;;0.22;64.91;99770.94;1468408;88;21777;-84
2023/03/12 02:04:27;;;;;;;4.17;2.53;;;;;;;0.12;63.54;99782.41;1475610;88;22242;-85
2023/03/12 02:07:08;;;;;;;4.57;2.47;;;;;;;0.15;63.96;99774.88;1487393;88;22488;-84
2023/03/12 02:09:39;;;;;;;7.00;3.12;;;;;;;0.06;63.29;99778.89;1477010;88;21672;-84
2023/03/12 02:12:08;;;;;;;3.30;2.00;;;;;;;0.01;63.78;99778.34;1480915;88;21398;-85
2023/03/12 02:14:34;;;;;;;6.25;2.65;;;;;;;0.00;63.98;99779.28;1475168;88;22063;-86
2023/03/12 02:17:00;;;;;;;4.10;2.27;;;;;;;-0.06;63.51;99783.54;1475254;88;21538;-86
2023/03/12 02:19:50;;;;;;;3.05;1.95;;;;;;;-0.03;64.46;99785.95;1477051;88;22220;-85
2023/03/12 02:22:18;;;;;;;5.27;2.23;;;;;;;-0.06;64.37;99785.70;1477208;88;21648;-85
2023/03/12 02:25:02;;;;;;;6.53;2.87;;;;;;;-0.07;64.46;99787.91;1477340;88;22411;-84
2023/03/12 02:27:32;;;;;;;4.00;2.02;;;;;;;-0.08;64.00;99792.76;1471067;88;21464;-85
2023/03/12 02:30:00;;;;;;;4.87;2.47;;;;;;;-0.11;63.85;99799.45;1506164;86;22374;-84
2023/03/12 02:32:31;;;;;;;4.70;2.50;;;;;;;-0.12;63.99;99798.23;1480060;88;21546;-83
2023/03/12 02:34:59;;;;;;;;;;;;;;;-0.12;63.99;99806.87;1476536;88;23124;-83
2023/03/12 02:37:25;;;;;;;3.98;2.10;;;;;;;-0.15;64.41;99813.56;1482189;88;20339;-84
2023/03/12 02:40:15;;;;;;;3.47;1.95;;;;;;;-0.19;65.02;99817.77;1480106;88;22091;-83
2023/03/12 02:42:43;;;;;;;4.37;2.50;;;;;;;-0.23;65.50;99819.72;1475346;88;21419;-86
2023/03/12 02:45:10;;;;;;;2.50;1.82;;;;;;;-0.30;65.59;99828.81;1478812;88;21368;-84
2023/03/12 02:47:36;;;;;;;4.08;2.22;;;;;;;-0.32;65.80;99828.06;1482397;88;21560;-82
2023/03/12 02:50:03;;;;;;;3.17;2.10;;;;;;;-0.36;66.97;99831.78;1480388;88;21340;-85
2023/03/12 02:52:34;;;;;;;4.05;2.12;;;;;;;-0.40;67.04;99830.28;1470139;88;21940;-83
2023/03/12 02:54:57;;;;;;;4.37;2.72;;;;;;;-0.46;67.79;99832.34;1479794;86;21663;-85
2023/03/12 02:57:23;;;;;;;4.22;2.08;;;;;;;-0.48;67.74;99834.19;1474190;88;22308;-81
2023/03/12 02:59:49;;;;;;;4.05;2.70;;;;;;;-0.54;67.68;99835.03;1472427;88;21549;-84
2023/03/12 03:02:15;;;;;;;6.17;2.75;;;;;;;-0.56;67.49;99841.61;1470014;88;21384;-86
2023/03/12 03:04:41;;;;;;;5.97;3.05;;;;;;;-0.60;67.46;99838.83;1481377;88;21419;-85
2023/03/12 03:07:08;;;;;;;6.62;3.20;;;;;;;-0.60;67.69;99842.73;1480942;88;22446;-84
2023/03/12 03:09:34;;;;;;;5.03;3.35;;;;;;;-0.61;68.33;99842.81;1510523;86;21487;-84
2023/03/12 03:12:00;;;;;;;5.87;3.17;;;;;;;-0.63;67.95;99847.25;1483973;88;21391;-85
2023/03/12 03:14:26;;;;;;;5.78;3.40;;;;;;;-0.66;68.01;99845.70;1478905;88;21435;-84
2023/03/12 03:16:52;;;;;;;6.70;2.98;;;;;;;-0.71;68.32;99848.55;1478630;88;21524;-86
2023/03/12 03:19:19;;;;;;;5.05;2.50;;;;;;;-0.79;67.51;99846.86;1480670;88;22191;-85
2023/03/12 03:21:45;;;;;;;5.47;2.72;;;;;;;-0.81;67.92;99851.77;1477728;88;21413;-85
2023/03/12 03:24:12;;;;;;;4.30;2.70;;;;;;;-0.83;68.08;99851.88;1477905;88;21674;-86
2023/03/12 03:26:38;;;;;;;4.28;2.47;;;;;;;-0.84;68.58;99857.98;1481527;88;21915;-84
2023/03/12 03:29:04;;;;;;;3.77;2.35;;;;;;;-0.87;68.76;99862.05;1474605;88;22389;-85
2023/03/12 03:31:31;;;;;;;11.00;4.35;;;;;;;-0.89;69.22;99868.27;1483366;88;21414;-85
2023/03/12 03:33:59;;;;;;;7.00;2.85;;;;;;;-0.92;69.44;99868.84;1480177;88;21686;-85
2023/03/12 03:36:25;;;;;;;6.70;3.20;;;;;;;-0.95;69.42;99875.51;1478795;88;21280;-84
2023/03/12 03:38:52;;;;;;;20.57;5.45;;;;;;;-0.99;69.44;99874.46;1473485;88;21420;-84
2023/03/12 03:41:20;;;;;;;8.20;3.95;;;;;;;-1.03;69.38;99880.30;1482354;88;21391;-85
2023/03/12 03:43:46;;;;;;;4.12;2.58;;;;;;;-1.06;69.28;99880.94;1476340;88;22362;-84
2023/03/12 03:46:13;;;;;;;6.97;2.80;;;;;;;-1.10;69.10;99885.45;1463005;88;21442;-85
2023/03/12 03:48:40;;;;;;;5.62;3.15;;;;;;;-1.15;69.18;99884.43;1479830;88;21340;-85
2023/03/12 03:51:08;;;;;;;5.25;2.98;;;;;;;-1.15;69.54;99890.09;1480271;88;22306;-86
2023/03/12 03:53:35;;;;;;;11.25;4.45;;;;;;;-1.20;69.35;99892.94;1475259;88;21384;-85
2023/03/12 03:56:11;;;;;;;6.22;3.75;;;;;;;-1.22;70.15;99899.13;1466558;88;21568;-87
2023/03/12 03:58:37;;;;;;;5.53;3.40;;;;;;;-1.27;70.61;99893.35;1466231;88;22374;-88
2023/03/12 04:01:04;;;;;;;5.47;3.50;;;;;;;-1.30;70.32;99893.53;1477007;88;21325;-85
2023/03/12 04:03:32;;;;;;;5.03;3.10;;;;;;;-1.35;70.67;99898.99;1471526;88;21420;-85
2023/03/12 04:06:01;;;;;;;7.80;3.45;;;;;;;-1.37;70.16;99899.06;1479101;88;21601;-85
2023/03/12 04:08:27;;;;;;;5.75;3.22;;;;;;;-1.39;70.32;99895.70;1476236;88;21338;-85
2023/03/12 04:10:54;;;;;;;7.90;3.10;;;;;;;-1.40;70.73;99894.04;1482805;88;22478;-85
2023/03/12 04:13:21;;;;;;;5.17;3.27;;;;;;;-1.43;71.72;99898.11;1470312;88;21398;-84
2023/03/12 04:15:51;;;;;;;5.20;3.25;;;;;;;-1.47;70.63;99908.27;1471863;88;21520;-85
2023/03/12 04:18:19;;;;;;;5.87;2.72;;;;;;;-1.47;70.32;99907.43;1476246;88;21441;-86
2023/03/12 04:20:45;;;;;;;6.28;3.30;;;;;;;-1.49;71.48;99905.40;1476086;88;21398;-85
2023/03/12 04:23:11;;;;;;;4.80;2.90;;;;;;;-1.50;71.70;99905.84;1475986;88;21316;-88
2023/03/12 04:25:38;;;;;;;6.70;3.20;;;;;;;-1.51;71.96;99910.66;1507945;86;22729;-85
2023/03/12 04:28:05;;;;;;;5.28;3.17;;;;;;;-1.53;71.84;99913.79;1474998;88;21391;-84
2023/03/12 04:30:31;;;;;;;6.83;3.65;;;;;;;-1.55;71.73;99918.25;1483155;88;22286;-86
2023/03/12 04:32:58;;;;;;;7.72;3.22;;;;;;;-1.53;71.52;99925.47;1471425;88;21623;-83
2023/03/12 04:35:24;;;;;;;5.10;3.22;;;;;;;-1.52;71.26;99933.66;1472354;88;21415;-85
2023/03/12 04:37:51;;;;;;;5.90;3.85;;;;;;;-1.52;70.88;99945.33;1469173;88;21484;-83
2023/03/12 04:40:18;;;;;;;8.38;4.47;;;;;;;-1.50;70.62;99947.83;1477379;88;22293;-84
2023/03/12 04:42:46;;;;;;;19.10;4.58;;;;;;;-1.51;70.44;99951.36;1480973;88;21369;-84
2023/03/12 04:45:13;;;;;;;9.08;3.27;;;;;;;-1.52;70.22;99957.02;1481747;88;21398;-84
2023/03/12 04:47:40;;;;;;;7.33;3.42;;;;;;;-1.51;70.11;99963.03;1497851;86;21479;-84
2023/03/12 04:50:08;;;;;;;8.20;3.22;;;;;;;-1.51;69.85;99971.66;1473207;88;22378;-84
2023/03/12 04:52:34;;;;;;;7.47;3.75;;;;;;;-1.55;69.89;99974.05;1469992;88;21476;-83
2023/03/12 04:55:01;;;;;;;5.85;3.90;;;;;;;-1.59;69.72;99975.11;1473480;88;22226;-85
2023/03/12 04:57:27;;;;;;;5.90;2.90;;;;;;;-1.63;69.74;99977.51;1479518;88;21539;-84
2023/03/12 04:59:54;;;;;;;7.90;3.40;;;;;;;-1.65;69.82;99979.33;1476176;88;21360;-82
2023/03/12 05:02:20;;;;;;;6.67;3.83;;;;;;;-1.66;69.93;99985.45;1486602;88;22449;-83
2023/03/12 05:04:46;;;;;;;5.72;2.87;;;;;;;-1.66;70.23;99991.94;1481270;88;21486;-80
2023/03/12 05:07:12;;;;;;;5.37;2.70;;;;;;;-1.68;70.34;100004.15;1468731;88;21376;-81
2023/03/12 05:09:39;;;;;;;9.70;3.95;;;;;;;-1.70;71.01;100004.68;1475122;88;21648;-80
2023/03/12 05:12:06;;;;;;;7.10;5.25;;;;;;;-1.73;71.25;100010.03;1474518;88;22447;-81
2023/03/12 05:14:32;;;;;;;6.15;3.92;;;;;;;-1.75;70.83;100017.08;1484428;88;21442;-81
2023/03/12 05:16:58;;;;;;;9.23;6.00;;;;;;;-1.77;70.73;100017.61;1473227;88;21369;-81
2023/03/12 05:19:25;;;;;;;12.05;6.87;;;;;;;-1.74;71.10;100023.47;1472992;88;21512;-82
2023/03/12 05:21:51;;;;;;;13.08;7.15;;;;;;;-1.70;71.32;100029.33;1469044;88;21661;-81
2023/03/12 05:24:18;;;;;;;14.93;7.75;;;;;;;-1.63;71.19;100037.19;1483818;88;22292;-82
2023/03/12 05:26:44;;;;;;;33.63;16.73;;;;;;;-1.57;71.12;100039.92;1485378;88;21360;-80
2023/03/12 05:29:10;;;;;;;32.83;16.95;;;;;;;-1.50;71.15;100043.40;1475416;88;21443;-80
2023/03/12 05:31:36;;;;;;;25.00;13.08;;;;;;;-1.42;70.97;100051.63;1479367;88;21509;-82
2023/03/12 05:34:04;;;;;;;21.27;11.20;;;;;;;-1.33;70.80;100055.50;1474554;88;21523;-81
2023/03/12 05:36:30;;;;;;;16.00;7.53;;;;;;;-1.25;70.64;100056.40;1475595;88;21575;-82
2023/03/12 05:38:56;;;;;;;14.20;8.38;;;;;;;-1.17;70.52;100063.33;1471036;88;21994;-81
2023/03/12 05:41:27;;;;;;;16.48;7.90;;;;;;;-1.07;70.58;100069.69;1484439;88;21442;-80
2023/03/12 05:43:56;;;;;;;12.58;7.10;;;;;;;-0.96;70.60;100071.25;1475874;88;21590;-80
2023/03/12 05:46:24;;;;;;;14.13;7.15;;;;;;;-0.84;70.44;100075.41;1474225;88;21480;-80
2023/03/12 05:48:50;;;;;;;111.60;37.08;;;;;;;-0.71;70.55;100084.22;1469228;88;21436;-80
2023/03/12 05:51:17;;;;;;;141.07;51.33;;;;;;;-0.59;70.37;100096.53;1476160;88;22492;-80
2023/03/12 05:53:43;;;;;;;156.87;59.55;;;;;;;-0.45;70.31;100094.47;1476944;88;21368;-80
2023/03/12 05:56:14;;;;;;;96.95;39.58;;;;;;;-0.29;70.24;100106.13;1476334;88;21369;-78
2023/03/12 05:58:40;;;;;;;47.85;20.17;;;;;;;-0.14;70.20;100107.89;1481670;88;21589;-80
2023/03/12 06:01:24;;;;;;;50.85;21.15;;;;;;;0.05;70.12;100114.16;1479405;88;21428;-79
2023/03/12 06:03:50;;;;;;;23.07;10.10;;;;;;;0.21;69.76;100119.33;1474077;88;21504;-81
2023/03/12 06:06:17;;;;;;;14.13;6.10;;;;;;;0.41;69.74;100125.52;1475671;88;22161;-79
2023/03/12 06:08:43;;;;;;;9.67;6.13;;;;;;;0.64;69.41;100133.73;1479220;88;21681;-80
2023/03/12 06:11:11;;;;;;;10.13;5.20;;;;;;;0.80;68.54;100131.86;1473809;88;21750;-80
2023/03/12 06:13:37;;;;;;;11.20;6.10;;;;;;;0.95;67.98;100139.69;1486450;88;22535;-80
2023/03/12 06:16:09;;;;;;;9.13;4.53;;;;;;;1.03;66.52;100135.67;1481310;88;21706;-81
2023/03/12 06:18:36;;;;;;;10.20;5.33;;;;;;;1.06;64.61;100130.75;1471396;88;21621;-80
2023/03/12 06:21:13;;;;;;;6.70;4.07;;;;;;;1.13;65.41;100135.97;1477894;88;21575;-81
2023/03/12 06:23:40;;;;;;;8.50;4.10;;;;;;;1.15;63.81;100139.30;1473563;88;21812;-80
2023/03/12 06:26:08;;;;;;;6.53;3.70;;;;;;;1.10;61.54;100136.16;1474254;88;21648;-80
2023/03/12 06:28:35;;;;;;;5.90;3.10;;;;;;;1.15;63.71;100145.81;1481022;88;23156;-79
2023/03/12 06:31:02;;;;;;;6.93;3.30;;;;;;;1.19;63.86;100147.32;1478654;88;22112;-80
2023/03/12 06:33:29;;;;;;;5.93;3.60;;;;;;;1.18;64.36;100149.56;1492661;86;22499;-81
2023/03/12 06:35:58;;;;;;;4.70;3.13;;;;;;;1.17;61.41;100158.77;1476201;88;21414;-81
2023/03/12 06:38:25;;;;;;;5.33;3.40;;;;;;;1.24;63.55;100164.83;1475071;88;21662;-80
2023/03/12 06:41:10;;;;;;;6.73;3.17;;;;;;;1.32;63.59;100170.41;1472514;88;21643;-81
2023/03/12 06:43:38;;;;;;;5.10;3.07;;;;;;;1.44;63.97;100170.55;1481922;88;21577;-80
2023/03/12 06:46:07;;;;;;;5.83;3.37;;;;;;;1.47;61.47;100169.09;1484224;88;22101;-81
2023/03/12 06:48:40;;;;;;;6.77;3.57;;;;;;;1.51;59.85;100170.09;1477645;88;21596;-80
2023/03/12 06:51:11;;;;;;;6.00;3.10;;;;;;;1.60;61.01;100172.58;1488074;86;21989;-81
2023/03/12 06:53:38;;;;;;;5.67;2.40;;;;;;;1.72;61.14;100173.58;1482218;88;21657;-82
2023/03/12 06:56:06;;;;;;;4.80;2.70;;;;;;;1.85;60.34;100178.40;1479855;88;22703;-81
2023/03/12 06:58:32;;;;;;;7.83;3.57;;;;;;;1.90;56.98;100187.22;1471188;88;21443;-81
2023/03/12 07:00:58;;;;;;;6.80;3.07;;;;;;;1.96;57.17;100193.37;1474220;88;21565;-81
2023/03/12 07:03:25;;;;;;;8.63;4.20;;;;;;;1.98;58.54;100194.09;1476215;88;21765;-83
2023/03/12 07:05:53;;;;;;;4.40;2.90;;;;;;;2.03;56.04;100198.56;1479125;88;21651;-82
2023/03/12 07:08:20;;;;;;;32.03;12.47;;;;;;;2.16;59.55;100203.84;1481039;88;21757;-82
2023/03/12 07:10:46;;;;;;;18.10;6.97;;;;;;;2.25;57.53;100212.38;1471725;88;21754;-82
2023/03/12 07:13:13;;;;;;;12.20;5.43;;;;;;;2.32;57.45;100212.81;1474897;88;22640;-80
2023/03/12 07:15:39;;;;;;;5.33;3.70;;;;;;;2.39;56.43;100213.63;1498456;86;21689;-82
2023/03/12 07:18:07;;;;;;;6.73;2.77;;;;;;;2.55;55.91;100223.89;1476110;88;21578;-83
2023/03/12 07:20:37;;;;;;;7.80;3.13;;;;;;;2.55;55.91;100223.89;1481028;88;21701;-81
2023/03/12 07:23:04;;;;;;;5.67;2.77;;;;;;;2.63;54.16;100224.22;1476415;88;22706;-82
2023/03/12 07:25:30;;;;;;;4.63;2.87;;;;;;;2.52;53.19;100223.27;1476473;88;21690;-82
2023/03/12 07:27:56;;;;;;;4.70;2.57;;;;;;;2.62;51.97;100234.31;1480392;88;21984;-80
2023/03/12 07:30:22;;;;;;;4.47;3.10;;;;;;;2.62;51.97;100234.31;1470113;88;21695;-80
2023/03/12 07:32:49;;;;;;;8.77;3.90;;;;;;;2.78;54.13;100234.59;1474013;88;22882;-80
2023/03/12 07:35:15;;;;;;;5.30;3.00;;;;;;;2.93;54.94;100230.94;1468820;88;21818;-81
2023/03/12 07:37:41;;;;;;;5.70;2.90;;;;;;;2.95;49.99;100232.99;1500115;86;22038;-84
2023/03/12 07:40:10;;;;;;;5.13;2.83;;;;;;;3.08;52.03;100233.84;1475465;88;21886;-83
2023/03/12 07:42:36;;;;;;;6.50;3.77;;;;;;;3.29;55.02;100230.70;1483376;88;22872;-80
2023/03/12 07:45:03;;;;;;;6.80;3.87;;;;;;;3.45;54.34;100241.36;1477006;88;22853;-84
2023/03/12 07:47:29;;;;;;;5.07;2.90;;;;;;;3.51;53.06;100241.36;1480183;88;23080;-81
2023/03/12 07:49:56;;;;;;;7.23;4.30;;;;;;;3.50;50.88;100237.05;1472179;88;22291;-83
2023/03/12 07:52:22;;;;;;;5.93;3.57;;;;;;;3.53;52.49;100240.75;1472755;88;22159;-83
2023/03/12 07:54:51;;;;;;;10.83;4.30;;;;;;;3.38;51.16;100246.59;1471234;88;23120;-83
2023/03/12 07:57:17;;;;;;;12.73;4.93;;;;;;;3.46;51.37;100253.91;1474254;86;22167;-83
2023/03/12 07:59:43;;;;;;;14.77;6.30;;;;;;;3.61;52.51;100252.01;1474670;88;23091;-83
2023/03/12 08:02:10;;;;;;;8.03;4.13;;;;;;;3.65;51.08;100251.31;1484872;88;21993;-83
2023/03/12 08:04:36;;;;;;;6.20;3.77;;;;;;;3.62;49.76;100247.13;1482274;88;22134;-82
2023/03/12 08:07:02;;;;;;;7.53;3.80;;;;;;;3.73;51.25;100250.30;1477231;88;22108;-79
2023/03/12 08:09:32;;;;;;;5.17;2.30;;;;;;;3.90;51.91;100251.26;1410122;88;22085;-82
2023/03/12 08:11:58;;;;;;;6.47;3.70;;;;;;;3.94;48.24;100253.17;1546754;88;22796;-84
2023/03/12 08:14:35;;;;;;;7.70;3.93;;;;;;;4.03;50.50;100250.76;1400677;88;22019;-83
2023/03/12 08:17:01;;;;;;;7.87;3.53;;;;;;;4.19;51.19;100255.71;1567961;86;22108;-84
2023/03/12 08:19:27;;;;;;;6.63;3.70;;;;;;;4.29;50.75;100258.52;1400605;88;22781;-81
2023/03/12 08:21:54;;;;;;;5.20;2.97;;;;;;;4.40;50.35;100257.72;1407136;88;21961;-82
2023/03/12 08:24:21;;;;;;;6.00;3.07;;;;;;;4.51;48.65;100262.53;1400495;88;21473;-83
2023/03/12 08:26:47;;;;;;;6.23;2.77;;;;;;;4.70;47.85;100275.61;1422660;88;21391;-83
2023/03/12 08:29:14;;;;;;;4.77;3.23;;;;;;;4.64;47.46;100276.06;1476994;88;21391;-83
2023/03/12 08:31:41;;;;;;;6.77;3.70;;;;;;;4.71;48.80;100282.52;1399816;88;21258;-83
2023/03/12 08:34:07;;;;;;;4.20;3.20;;;;;;;4.73;48.76;100275.38;1406576;88;21505;-83
2023/03/12 08:36:36;;;;;;;3.83;2.70;;;;;;;4.73;48.76;100275.38;1400896;88;21484;-82
2023/03/12 08:39:02;;;;;;;5.90;3.60;;;;;;;4.91;49.50;100288.42;1554066;86;22294;-83
2023/03/12 08:41:29;;;;;;;4.67;3.30;;;;;;;4.96;47.46;100278.43;1561793;88;21169;-83
2023/03/12 08:43:55;;;;;;;4.87;2.60;;;;;;;5.06;48.65;100286.43;1400496;88;21432;-83
2023/03/12 08:46:21;;;;;;;4.90;3.17;;;;;;;5.09;47.79;100296.72;1406160;88;21221;-83
2023/03/12 08:48:48;;;;;;;5.97;2.73;;;;;;;5.14;47.93;100292.42;1403323;88;21273;-83
2023/03/12 08:51:15;;;;;;;4.50;3.17;;;;;;;5.00;46.99;100291.31;1477441;88;22332;-83
2023/03/12 08:53:42;;;;;;;3.63;2.43;;;;;;;4.91;45.98;100280.55;1473980;88;21553;-83
2023/03/12 08:56:08;;;;;;;4.10;2.90;;;;;;;4.86;46.23;100290.58;1503033;86;21420;-83
2023/03/12 08:58:34;;;;;;;5.13;2.60;;;;;;;5.04;47.43;100292.29;1479832;88;21450;-83
2023/03/12 09:01:01;;;;;;;7.93;3.30;;;;;;;5.13;46.70;100294.70;1477339;88;21832;-85
2023/03/12 09:03:27;;;;;;;4.43;2.30;;;;;;;5.24;47.84;100303.08;1475735;88;21376;-81
2023/03/12 09:06:03;;;;;;;5.10;2.50;;;;;;;5.39;48.30;100292.23;1469721;88;22322;-82
2023/03/12 09:08:32;;;;;;;3.80;2.23;;;;;;;5.57;48.68;100291.77;1478119;88;21588;-81
2023/03/12 09:10:58;;;;;;;4.23;2.50;;;;;;;5.53;46.92;100295.59;1473268;86;21486;-82
2023/03/12 09:13:24;;;;;;;5.57;2.93;;;;;;;5.48;45.67;100295.11;1477051;88;21560;-82
2023/03/12 09:15:50;;;;;;;5.77;3.70;;;;;;;5.47;46.57;100291.65;1475231;88;22366;-82
2023/03/12 09:18:19;;;;;;;3.70;2.37;;;;;;;5.57;46.05;100304.89;1475853;88;21464;-83
2023/03/12 09:20:45;;;;;;;3.97;2.30;;;;;;;5.66;46.49;100301.06;1464775;88;22499;-83
2023/03/12 09:23:11;;;;;;;4.83;3.10;;;;;;;5.72;45.79;100297.61;1473256;88;22477;-81
2023/03/12 09:25:37;;;;;;;5.40;3.30;;;;;;;5.75;46.87;100302.63;1484643;88;21420;-81
2023/03/12 09:28:04;;;;;;;5.97;2.80;;;;;;;5.84;47.39;100310.64;1468960;88;21450;-80
2023/03/12 09:30:30;;;;;;;3.87;2.00;;;;;;;5.95;46.71;100312.44;1477210;88;21546;-83
2023/03/12 09:32:57;;;;;;;5.03;2.90;;;;;;;5.80;47.13;100309.19;1479430;88;21569;-83
2023/03/12 09:35:23;;;;;;;3.47;2.20;;;;;;;6.01;47.39;100309.80;1474323;88;21440;-82
2023/03/12 09:37:50;;;;;;;6.63;4.07;;;;;;;6.16;46.69;100312.55;1470940;88;21369;-81
2023/03/12 09:40:23;;;;;;;7.40;4.27;;;;;;;6.22;46.43;100314.69;1468588;88;22271;-82
2023/03/12 09:42:55;;;;;;;8.97;3.33;;;;;;;6.30;46.34;100314.91;1471142;88;22418;-82
2023/03/12 09:45:25;;;;;;;5.37;2.90;;;;;;;6.38;45.93;100310.81;1483778;88;21457;-82
2023/03/12 09:47:59;;;;;;;5.12;3.08;;;;;;;6.43;46.13;100321.32;1476466;88;21287;-82
2023/03/12 09:50:32;;;;;;;5.47;3.30;;;;;;;6.56;46.61;100317.23;1464753;88;21456;-83
2023/03/12 09:53:22;;;;;;;4.73;2.87;;;;;;;6.63;46.60;100314.94;1474498;88;21323;-81
2023/03/12 09:55:51;;;;;;;6.03;3.20;;;;;;;6.95;46.67;100316.23;1476920;88;22419;-81
2023/03/12 09:58:29;;;;;;;6.67;2.87;;;;;;;7.29;47.44;100320.01;1466153;88;22278;-81
2023/03/12 10:01:06;;;;;;;4.40;2.83;;;;;;;7.56;45.74;100312.38;1475708;88;22101;-82
2023/03/12 10:04:14;;;;;;;4.40;2.87;;;;;;;7.73;46.02;100312.75;1555818;88;21258;-82
2023/03/12 10:06:52;;;;;;;3.97;2.33;;;;;;;7.73;43.65;100312.75;1561688;88;21207;-81
2023/03/12 10:09:52;;;;;;;4.87;2.50;;;;;;;7.74;42.98;100313.95;1404041;88;22383;-81
2023/03/12 10:12:48;;;;;;;4.70;3.13;;;;;;;7.58;42.57;100318.36;1406107;88;21539;-82
2023/03/12 10:15:28;;;;;;;5.77;3.27;;;;;;;7.60;43.31;100317.77;1407805;88;21346;-83
2023/03/12 10:18:33;;;;;;;4.72;2.90;;;;;;;7.40;42.41;100314.67;1398699;89;21538;-82
2023/03/12 10:21:36;;;;;;;5.20;3.33;;;;;;;7.52;43.49;100320.70;1432173;88;22250;-83
2023/03/12 10:28:46;;;;;;;4.63;2.47;;;;;;;7.82;43.05;100309.31;1562010;88;21259;-82
2023/03/12 10:31:26;;;;;;;7.97;2.73;;;;;;;7.94;41.52;100309.59;1401586;88;21213;-81
2023/03/12 10:34:02;;;;;;;5.75;3.37;;;;;;;7.26;41.55;100311.88;1456227;88;21454;-83
2023/03/12 10:36:36;;;;;;;4.27;2.53;;;;;;;7.20;43.62;100308.45;1561695;88;22110;-83
2023/03/12 10:39:05;;;;;;;5.57;2.30;;;;;;;7.29;42.80;100308.98;1527310;88;21590;-83
2023/03/12 10:41:32;;;;;;;5.33;2.70;;;;;;;7.32;43.13;100307.41;1480912;88;22483;-84
2023/03/12 10:44:07;;;;;;;3.40;2.30;;;;;;;7.38;43.62;100306.06;1481155;88;21560;-84
2023/03/12 10:46:41;;;;;;;4.27;3.23;;;;;;;7.51;42.96;100306.70;1474465;88;22358;-83
2023/03/12 10:49:26;;;;;;;4.90;2.77;;;;;;;7.82;42.94;100298.78;1480467;88;21515;-85
2023/03/12 10:51:55;;;;;;;6.53;3.80;;;;;;;8.05;42.66;100299.41;1476514;88;21443;-86
2023/03/12 10:54:29;;;;;;;4.23;3.03;;;;;;;8.27;41.93;100284.69;1478901;88;21463;-87
2023/03/12 10:56:56;;;;;;;4.60;2.70;;;;;;;8.52;41.50;100288.65;1476672;88;21368;-86
2023/03/12 10:59:29;;;;;;;4.73;2.37;;;;;;;8.80;41.98;100285.67;1478380;88;21525;-86
2023/03/12 11:01:56;;;;;;;4.93;2.93;;;;;;;8.87;40.83;100284.63;1480437;88;22263;-86
2023/03/12 11:04:30;;;;;;;3.87;2.30;;;;;;;9.07;41.19;100295.17;1479127;88;21473;-86
2023/03/12 11:07:17;;;;;;;4.13;2.77;;;;;;;9.08;40.22;100292.86;1475843;88;22315;-86
2023/03/12 11:09:44;;;;;;;4.07;2.60;;;;;;;9.09;40.17;100290.56;1451599;88;21480;-88
2023/03/12 11:12:29;;;;;;;3.50;2.50;;;;;;;9.30;39.89;100291.23;1475148;88;21427;-83
2023/03/12 11:14:57;;;;;;;4.40;2.50;;;;;;;9.48;38.95;100288.18;1497626;88;21384;-82
2023/03/12 11:17:26;;;;;;;7.03;3.43;;;;;;;9.59;39.83;100288.99;1399256;88;21417;-84
2023/03/12 11:19:56;;;;;;;6.60;2.90;;;;;;;9.84;37.72;100283.05;1554015;88;21295;-83
2023/03/12 11:22:34;;;;;;;3.87;2.80;;;;;;;9.84;37.92;100279.08;1566678;88;21413;-82
2023/03/12 11:25:04;;;;;;;3.47;2.80;;;;;;;9.84;37.38;100280.41;1397250;88;22220;-83
2023/03/12 11:27:42;;;;;;;5.28;3.52;;;;;;;10.05;38.15;100270.07;1555793;88;21302;-85
2023/03/12 11:30:16;;;;;;;3.20;2.53;;;;;;;10.11;36.55;100270.80;1561770;88;22088;-83
2023/03/12 11:32:48;;;;;;;3.03;1.90;;;;;;;10.10;35.13;100269.14;1561752;88;21508;-83
2023/03/12 11:35:18;;;;;;;4.77;2.90;;;;;;;9.93;37.07;100277.37;1384930;89;21390;-81
2023/03/12 11:38:18;;;;;;;2.65;2.00;;;;;;;9.82;35.28;100274.42;1506969;88;21467;-83
2023/03/12 11:41:23;;;;;;;3.90;2.40;;;;;;;10.03;37.01;100283.92;1490518;88;21585;-82
2023/03/12 11:43:58;;;;;;;3.93;2.50;;;;;;;10.01;36.97;100271.33;1474997;88;21710;-83
2023/03/12 11:46:52;;;;;;;2.83;2.10;;;;;;;10.13;36.75;100272.81;1461172;89;22346;-83
2023/03/12 11:50:00;;;;;;;5.07;3.17;;;;;;;10.36;36.72;100275.90;1457394;89;21458;-82